createdAt,value
2018-09-24T00:02:23.727Z,100741.83
2018-09-24T00:04:51.282Z,100750.26
2018-09-24T00:07:18.838Z,100759.93
2018-09-24T00:09:46.421Z,100762.20
2018-09-24T00:12:15.385Z,100766.69
2018-09-24T00:14:43.319Z,100770.67
2018-09-24T00:17:11.522Z,100776.93
2018-09-24T00:19:39.059Z,100779.58
2018-09-24T00:22:06.822Z,100780.05
2018-09-24T00:24:34.484Z,100778.91
2018-09-24T00:27:02.083Z,100781.56
2018-09-24T00:29:29.651Z,100784.30
2018-09-24T00:31:57.223Z,100791.02
2018-09-24T00:34:24.905Z,100798.15
2018-09-24T00:36:52.766Z,100802.59
2018-09-24T00:39:20.314Z,100808.47
2018-09-24T00:41:47.915Z,100810.75
2018-09-24T00:44:16.035Z,100816.52
2018-09-24T00:46:43.562Z,100826.30
2018-09-24T00:49:11.105Z,100824.10
2018-09-24T00:51:38.659Z,100818.03
2018-09-24T00:54:06.351Z,100827.78
2018-09-24T00:56:33.957Z,100834.13
2018-09-24T00:59:01.962Z,100837.27
2018-09-24T01:01:29.514Z,100841.82
2018-09-24T01:03:57.027Z,100847.59
2018-09-24T01:06:24.557Z,100849.86
2018-09-24T01:08:52.148Z,100856.58
2018-09-24T01:11:19.775Z,100859.72
2018-09-24T01:13:47.690Z,100857.52
2018-09-24T01:16:15.253Z,100868.59
2018-09-24T01:18:42.798Z,100873.64
2018-09-24T01:21:10.368Z,100881.68
2018-09-24T01:23:37.933Z,100878.80
2018-09-24T01:26:05.526Z,100887.70
2018-09-24T01:28:33.103Z,100889.59
2018-09-24T01:31:00.670Z,100892.71
2018-09-24T01:33:28.249Z,100906.85
2018-09-24T01:35:55.771Z,100908.64
2018-09-24T01:38:23.368Z,100925.43
2018-09-24T01:40:50.946Z,100925.61
2018-09-24T01:43:18.502Z,100929.59
2018-09-24T01:45:46.088Z,100933.09
2018-09-24T01:48:13.673Z,100930.05
2018-09-24T01:50:41.219Z,100930.61
2018-09-24T01:53:09.019Z,100931.56
2018-09-24T01:55:37.091Z,100931.14
2018-09-24T01:58:04.665Z,100945.28
2018-09-24T02:00:32.265Z,100945.85
2018-09-24T02:02:59.806Z,100951.61
2018-09-24T02:05:27.375Z,100955.59
2018-09-24T02:07:55.034Z,100961.66
2018-09-24T02:10:22.628Z,100964.25
2018-09-24T02:12:50.165Z,100964.62
2018-09-24T02:15:17.765Z,100969.30
2018-09-24T02:17:45.299Z,100970.94
2018-09-24T02:20:12.775Z,100973.59
2018-09-24T02:22:40.276Z,100977.88
2018-09-24T02:25:07.775Z,100986.15
2018-09-24T02:27:35.295Z,100983.39
2018-09-24T02:32:38.168Z,100990.66
2018-09-24T02:35:05.863Z,100990.90
2018-09-24T02:37:33.418Z,100987.22
2018-09-24T02:40:02.597Z,100988.86
2018-09-24T02:42:30.083Z,100992.35
2018-09-24T02:44:58.768Z,101001.11
2018-09-24T02:47:29.901Z,101002.03
2018-09-24T02:49:57.440Z,101007.06
2018-09-24T02:52:24.943Z,101016.12
2018-09-24T02:54:52.447Z,101015.88
2018-09-24T02:57:19.987Z,101020.91
2018-09-24T02:59:47.478Z,101023.64
2018-09-24T03:02:14.979Z,101026.47
2018-09-24T03:04:42.449Z,101035.83
2018-09-24T03:07:09.969Z,101032.94
2018-09-24T03:09:37.456Z,101031.72
2018-09-24T03:12:04.986Z,101037.17
2018-09-24T03:14:32.564Z,101041.33
2018-09-24T03:17:00.449Z,101041.39
2018-09-24T03:19:28.010Z,101050.69
2018-09-24T03:21:55.582Z,101049.84
2018-09-24T03:24:23.084Z,101057.80
2018-09-24T03:26:50.624Z,101056.62
2018-09-24T03:29:18.124Z,101060.28
2018-09-24T03:31:45.632Z,101062.94
2018-09-24T03:34:14.007Z,101071.00
2018-09-24T03:36:41.555Z,101076.30
2018-09-24T03:39:09.108Z,101075.92
2018-09-24T03:41:36.584Z,101076.45
2018-09-24T03:44:04.556Z,101081.86
2018-09-24T03:46:32.079Z,101082.77
2018-09-24T03:48:59.608Z,101085.55
2018-09-24T03:51:27.119Z,101083.91
2018-09-24T03:53:54.602Z,101087.05
2018-09-24T03:56:22.087Z,101086.34
2018-09-24T03:58:50.020Z,101084.53
2018-09-24T04:01:17.504Z,101091.27
2018-09-24T04:03:45.016Z,101086.03
2018-09-24T04:06:17.785Z,101092.80
2018-09-24T04:08:50.495Z,101100.30
2018-09-24T04:11:23.069Z,101103.52
2018-09-24T04:13:55.734Z,101104.03
2018-09-24T04:16:28.365Z,101101.87
2018-09-24T04:19:01.151Z,101110.77
2018-09-24T04:21:34.334Z,101118.23
2018-09-24T04:24:06.905Z,101122.77
2018-09-24T04:26:40.239Z,101125.97
2018-09-24T04:29:13.352Z,101130.02
2018-09-24T04:31:46.176Z,101126.52
2018-09-24T04:34:18.912Z,101128.30
2018-09-24T04:36:51.499Z,101131.02
2018-09-24T04:39:24.522Z,101136.81
2018-09-24T04:41:57.204Z,101134.22
2018-09-24T04:44:29.786Z,101141.30
2018-09-24T04:47:02.351Z,101143.89
2018-09-24T04:49:35.903Z,101148.03
2018-09-24T04:52:08.480Z,101152.02
2018-09-24T04:54:41.627Z,101159.58
2018-09-24T04:57:14.192Z,101163.14
2018-09-24T04:59:47.595Z,101169.77
2018-09-24T05:02:20.334Z,101167.11
2018-09-24T05:04:53.092Z,101179.92
2018-09-24T05:07:26.168Z,101181.70
2018-09-24T05:09:58.853Z,101184.35
2018-09-24T05:12:31.674Z,101191.85
2018-09-24T05:15:04.340Z,101194.95
2018-09-24T05:17:37.014Z,101194.95
2018-09-24T05:20:09.931Z,101202.45
2018-09-24T05:22:42.717Z,101201.52
2018-09-24T05:25:15.418Z,101208.54
2018-09-24T05:27:48.323Z,101210.73
2018-09-24T05:30:21.044Z,101208.09
2018-09-24T05:32:53.883Z,101210.35
2018-09-24T05:35:27.270Z,101213.52
2018-09-24T05:38:00.292Z,101225.88
2018-09-24T05:40:32.968Z,101224.13
2018-09-24T05:43:05.478Z,101218.44
2018-09-24T05:45:38.524Z,101217.11
2018-09-24T05:48:11.247Z,101223.22
2018-09-24T05:50:44.111Z,101223.61
2018-09-24T05:53:16.750Z,101227.42
2018-09-24T05:55:50.072Z,101233.61
2018-09-24T05:58:25.069Z,101242.27
2018-09-24T06:00:57.668Z,101239.14
2018-09-24T06:03:31.035Z,101246.09
2018-09-24T06:06:04.118Z,101247.80
2018-09-24T06:08:37.518Z,101242.44
2018-09-24T06:11:10.137Z,101257.25
2018-09-24T06:13:43.308Z,101267.67
2018-09-24T06:16:15.863Z,101272.33
2018-09-24T06:18:48.846Z,101283.66
2018-09-24T06:21:21.300Z,101282.20
2018-09-24T06:23:54.098Z,101282.94
2018-09-24T06:26:27.344Z,101290.28
2018-09-24T06:29:00.291Z,101288.34
2018-09-24T06:31:33.004Z,101297.86
2018-09-24T06:34:06.139Z,101304.27
2018-09-24T06:36:39.360Z,101302.81
2018-09-24T06:39:11.948Z,101309.67
2018-09-24T06:41:46.116Z,101311.25
2018-09-24T06:44:18.679Z,101315.00
2018-09-24T06:46:51.666Z,101320.64
2018-09-24T06:49:24.195Z,101326.98
2018-09-24T06:51:57.671Z,101327.14
2018-09-24T06:54:30.492Z,101322.92
2018-09-24T06:57:03.182Z,101328.31
2018-09-24T06:59:36.179Z,101335.56
2018-09-24T07:02:08.904Z,101338.73
2018-09-24T07:04:41.736Z,101338.39
2018-09-24T07:07:15.456Z,101340.61
2018-09-24T07:09:48.057Z,101334.00
2018-09-24T07:12:21.511Z,101348.63
2018-09-24T07:14:54.847Z,101347.69
2018-09-24T07:17:28.091Z,101355.18
2018-09-24T07:20:01.291Z,101353.36
2018-09-24T07:22:33.865Z,101366.58
2018-09-24T07:25:06.541Z,101363.81
2018-09-24T07:27:39.467Z,101366.47
2018-09-24T07:30:12.328Z,101373.95
2018-09-24T07:32:45.604Z,101377.44
2018-09-24T07:35:18.281Z,101383.16
2018-09-24T07:37:51.592Z,101376.84
2018-09-24T07:40:24.105Z,101378.14
2018-09-24T07:42:59.528Z,101389.61
2018-09-24T07:45:32.139Z,101387.30
2018-09-24T07:48:05.660Z,101391.65
2018-09-24T07:50:39.114Z,101392.45
2018-09-24T07:53:12.419Z,101396.69
2018-09-24T07:55:45.306Z,101396.57
2018-09-24T07:58:18.020Z,101405.93
2018-09-24T08:00:50.622Z,101408.03
2018-09-24T08:03:23.335Z,101412.44
2018-09-24T08:05:56.036Z,101413.80
2018-09-24T08:08:29.700Z,101411.09
2018-09-24T08:11:02.363Z,101423.00
2018-09-24T08:13:35.291Z,101425.91
2018-09-24T08:16:07.902Z,101424.33
2018-09-24T08:18:42.572Z,101431.13
2018-09-24T08:21:18.403Z,101431.56
2018-09-24T08:23:51.123Z,101435.89
2018-09-24T08:26:23.724Z,101442.28
2018-09-24T08:28:56.912Z,101442.30
2018-09-24T08:31:29.454Z,101444.27
2018-09-24T08:34:02.386Z,101447.61
2018-09-24T08:36:35.644Z,101459.63
2018-09-24T08:39:09.574Z,101455.82
2018-09-24T08:41:42.542Z,101462.59
2018-09-24T08:44:15.260Z,101459.91
2018-09-24T08:46:48.958Z,101457.97
2018-09-24T08:49:21.540Z,101462.34
2018-09-24T08:51:54.346Z,101460.71
2018-09-24T08:54:28.508Z,101457.19
2018-09-24T08:57:01.593Z,101465.59
2018-09-24T08:59:34.602Z,101471.77
2018-09-24T09:02:07.410Z,101473.28
2018-09-24T09:04:45.074Z,101476.84
2018-09-24T09:07:17.680Z,101472.95
2018-09-24T09:09:50.686Z,101475.88
2018-09-24T09:12:23.365Z,101475.42
2018-09-24T09:14:56.124Z,101473.28
2018-09-24T09:17:30.146Z,101462.93
2018-09-24T09:20:03.429Z,101463.80
2018-09-24T09:22:36.328Z,101475.63
2018-09-24T09:25:09.676Z,101470.56
2018-09-24T09:27:42.659Z,101468.41
2018-09-24T09:30:15.961Z,101473.15
2018-09-24T09:32:49.412Z,101471.00
2018-09-24T09:35:22.067Z,101474.02
2018-09-24T09:37:54.741Z,101483.34
2018-09-24T09:40:28.840Z,101489.09
2018-09-24T09:43:01.534Z,101483.38
2018-09-24T09:45:34.424Z,101488.34
2018-09-24T09:48:07.205Z,101495.50
2018-09-24T09:50:41.822Z,101491.05
2018-09-24T09:53:15.747Z,101490.84
2018-09-24T09:55:48.504Z,101472.91
2018-09-24T09:58:23.227Z,101478.37
2018-09-24T10:01:00.091Z,101474.27
2018-09-24T10:03:32.837Z,101470.25
2018-09-24T10:06:07.108Z,101479.77
2018-09-24T10:08:40.322Z,101474.66
2018-09-24T10:11:13.044Z,101480.59
2018-09-24T10:13:46.066Z,101476.09
2018-09-24T10:16:19.495Z,101484.02
2018-09-24T10:18:52.377Z,101478.91
2018-09-24T10:21:25.108Z,101471.91
2018-09-24T10:24:01.599Z,101480.19
2018-09-24T10:26:34.146Z,101481.88
2018-09-24T10:29:06.996Z,101486.30
2018-09-24T10:31:39.898Z,101491.09
2018-09-24T10:34:13.252Z,101487.84
2018-09-24T10:36:50.801Z,101479.92
2018-09-24T10:39:23.425Z,101489.58
2018-09-24T10:41:56.968Z,101479.56
2018-09-24T10:44:29.867Z,101478.55
2018-09-24T10:47:02.608Z,101474.28
2018-09-24T10:49:36.046Z,101474.23
2018-09-24T10:52:10.038Z,101477.60
2018-09-24T10:54:42.786Z,101479.20
2018-09-24T10:57:17.007Z,101475.40
2018-09-24T10:59:50.853Z,101473.97
2018-09-24T11:02:23.590Z,101484.77
2018-09-24T11:04:57.343Z,101493.23
2018-09-24T11:07:30.031Z,101493.50
2018-09-24T11:10:03.953Z,101494.91
2018-09-24T11:12:36.633Z,101501.97
2018-09-24T11:15:09.250Z,101488.81
2018-09-24T11:17:42.472Z,101480.06
2018-09-24T11:20:17.840Z,101471.14
2018-09-24T11:22:50.604Z,101478.52
2018-09-24T11:25:24.667Z,101480.16
2018-09-24T11:27:57.275Z,101475.58
2018-09-24T11:30:30.021Z,101476.02
2018-09-24T11:33:02.591Z,101472.77
2018-09-24T11:35:35.232Z,101472.45
2018-09-24T11:38:08.157Z,101481.28
2018-09-24T11:40:40.896Z,101481.47
2018-09-24T11:43:13.551Z,101479.78
2018-09-24T11:45:46.660Z,101486.79
2018-09-24T11:48:19.317Z,101486.36
2018-09-24T11:50:51.958Z,101486.79
2018-09-24T11:53:25.484Z,101491.73
2018-09-24T11:55:58.262Z,101495.95
2018-09-24T11:58:31.179Z,101503.40
2018-09-24T12:01:03.907Z,101504.59
2018-09-24T12:03:36.559Z,101505.42
2018-09-24T12:06:10.277Z,101501.12
2018-09-24T12:08:43.523Z,101499.02
2018-09-24T12:11:16.597Z,101505.20
2018-09-24T12:13:49.406Z,101512.93
2018-09-24T12:16:22.429Z,101507.08
2018-09-24T12:18:54.941Z,101501.23
2018-09-24T12:21:27.741Z,101493.45
2018-09-24T12:24:00.480Z,101488.85
2018-09-24T12:26:33.355Z,101493.69
2018-09-24T12:29:06.036Z,101505.48
2018-09-24T12:31:41.017Z,101529.13
2018-09-24T12:34:13.745Z,101532.13
2018-09-24T12:36:46.310Z,101545.20
2018-09-24T12:39:19.480Z,101544.80
2018-09-24T12:41:53.137Z,101550.69
2018-09-24T12:44:26.203Z,101553.21
2018-09-24T12:46:58.828Z,101556.86
2018-09-24T12:49:32.592Z,101562.73
2018-09-24T12:52:06.824Z,101569.75
2018-09-24T12:54:40.312Z,101567.15
2018-09-24T12:57:14.118Z,101575.09
2018-09-24T12:59:47.548Z,101578.78
2018-09-24T13:02:21.064Z,101576.73
2018-09-24T13:04:54.251Z,101583.30
2018-09-24T13:07:30.515Z,101583.50
2018-09-24T13:10:03.909Z,101571.65
2018-09-24T13:12:36.636Z,101574.33
2018-09-24T13:15:10.160Z,101576.83
2018-09-24T13:17:43.382Z,101569.65
2018-09-24T13:20:15.902Z,101570.52
2018-09-24T13:22:50.250Z,101567.58
2018-09-24T13:25:23.740Z,101568.59
2018-09-24T13:27:59.369Z,101563.91
2018-09-24T13:30:32.426Z,101559.77
2018-09-24T13:33:07.234Z,101558.40
2018-09-24T13:35:39.874Z,101550.30
2018-09-24T13:38:12.841Z,101548.65
2018-09-24T13:40:46.398Z,101559.87
2018-09-24T13:43:20.119Z,101556.81
2018-09-24T13:45:52.959Z,101556.13
2018-09-24T13:48:25.958Z,101558.38
2018-09-24T13:50:58.523Z,101547.84
2018-09-24T13:53:32.241Z,101538.30
2018-09-24T13:56:04.796Z,101541.20
2018-09-24T13:58:37.817Z,101534.44
2018-09-24T14:01:11.291Z,101535.75
2018-09-24T14:03:44.017Z,101537.92
2018-09-24T14:06:20.732Z,101535.20
2018-09-24T14:08:53.948Z,101536.80
2018-09-24T14:11:26.694Z,101524.67
2018-09-24T14:14:01.241Z,101535.09
2018-09-24T14:16:34.010Z,101552.23
2018-09-24T14:19:06.608Z,101551.50
2018-09-24T14:21:40.193Z,101559.10
2018-09-24T14:24:13.461Z,101563.52
2018-09-24T14:26:46.040Z,101562.91
2018-09-24T14:29:19.131Z,101572.60
2018-09-24T14:31:51.852Z,101558.80
2018-09-24T14:34:24.468Z,101558.22
2018-09-24T14:37:01.175Z,101557.30
2018-09-24T14:39:33.855Z,101552.11
2018-09-24T14:42:07.119Z,101547.70
2018-09-24T14:44:41.179Z,101557.79
2018-09-24T14:47:13.862Z,101555.89
2018-09-24T14:49:46.827Z,101557.70
2018-09-24T14:52:20.113Z,101554.80
2018-09-24T14:54:58.677Z,101548.33
2018-09-24T14:57:31.392Z,101549.52
2018-09-24T15:00:05.217Z,101546.84
2018-09-24T15:02:38.675Z,101547.46
2018-09-24T15:05:12.793Z,101546.50
2018-09-24T15:07:47.054Z,101549.62
2018-09-24T15:10:19.662Z,101552.08
2018-09-24T15:12:52.407Z,101557.66
2018-09-24T15:15:27.338Z,101552.09
2018-09-24T15:18:00.024Z,101551.25
2018-09-24T15:20:33.233Z,101549.36
2018-09-24T15:23:06.256Z,101540.27
2018-09-24T15:25:42.939Z,101548.41
2018-09-24T15:28:15.792Z,101548.97
2018-09-24T15:30:48.448Z,101544.01
2018-09-24T15:33:22.282Z,101552.80
2018-09-24T15:35:55.347Z,101551.89
2018-09-24T15:38:29.083Z,101550.19
2018-09-24T15:41:02.035Z,101544.19
2018-09-24T15:43:34.629Z,101536.13
2018-09-24T15:46:07.602Z,101546.59
2018-09-24T15:48:44.590Z,101546.17
2018-09-24T15:51:17.140Z,101542.78
2018-09-24T15:53:50.229Z,101539.26
2018-09-24T15:56:22.810Z,101539.27
2018-09-24T15:58:55.567Z,101544.52
2018-09-24T16:01:33.089Z,101547.34
2018-09-24T16:04:07.557Z,101544.40
2018-09-24T16:06:40.973Z,101550.59
2018-09-24T16:09:13.636Z,101556.66
2018-09-24T16:11:46.480Z,101556.86
2018-09-24T16:14:24.007Z,101558.80
2018-09-24T16:16:57.304Z,101561.40
2018-09-24T16:19:30.884Z,101567.11
2018-09-24T16:22:03.552Z,101562.88
2018-09-24T16:24:41.494Z,101569.70
2018-09-24T16:27:17.161Z,101572.63
2018-09-24T16:29:52.500Z,101566.52
2018-09-24T16:32:25.036Z,101579.37
2018-09-24T16:34:57.739Z,101586.92
2018-09-24T16:37:30.882Z,101588.78
2018-09-24T16:40:05.005Z,101583.45
2018-09-24T16:42:37.973Z,101595.41
2018-09-24T16:45:10.636Z,101591.20
2018-09-24T16:47:44.258Z,101596.93
2018-09-24T16:50:18.089Z,101592.45
2018-09-24T16:52:50.754Z,101590.16
2018-09-24T16:55:23.768Z,101590.36
2018-09-24T16:57:57.524Z,101599.06
2018-09-24T17:00:30.472Z,101600.12
2018-09-24T17:03:02.997Z,101611.78
2018-09-24T17:05:36.012Z,101613.79
2018-09-24T17:08:08.739Z,101628.30
2018-09-24T17:10:42.431Z,101636.03
2018-09-24T17:13:15.558Z,101638.91
2018-09-24T17:15:48.838Z,101638.86
2018-09-24T17:18:22.533Z,101649.14
2018-09-24T17:20:55.107Z,101650.07
2018-09-24T17:23:29.281Z,101646.67
2018-09-24T17:26:02.009Z,101647.07
2018-09-24T17:28:34.724Z,101646.55
2018-09-24T17:31:07.952Z,101642.77
2018-09-24T17:33:40.668Z,101653.67
2018-09-24T17:36:13.233Z,101661.86
2018-09-24T17:38:46.449Z,101669.12
2018-09-24T17:41:19.285Z,101670.58
2018-09-24T17:43:52.320Z,101665.45
2018-09-24T17:46:28.554Z,101676.12
2018-09-24T17:49:01.361Z,101677.89
2018-09-24T17:51:34.105Z,101681.34
2018-09-24T17:54:06.849Z,101678.22
2018-09-24T17:56:40.577Z,101689.69
2018-09-24T17:59:13.318Z,101689.55
2018-09-24T18:01:46.383Z,101688.98
2018-09-24T18:04:20.569Z,101689.72
2018-09-24T18:06:53.262Z,101697.08
2018-09-24T18:09:26.904Z,101701.45
2018-09-24T18:12:00.300Z,101705.23
2018-09-24T18:14:33.271Z,101706.86
2018-09-24T18:17:05.827Z,101709.38
2018-09-24T18:19:38.625Z,101720.16
2018-09-24T18:22:13.801Z,101723.94
2018-09-24T18:24:46.433Z,101726.34
2018-09-24T18:27:19.429Z,101730.56
2018-09-24T18:29:52.019Z,101741.31
2018-09-24T18:32:24.898Z,101738.48
2018-09-24T18:34:57.769Z,101740.30
2018-09-24T18:37:33.694Z,101741.16
2018-09-24T18:40:07.435Z,101738.59
2018-09-24T18:42:40.159Z,101739.69
2018-09-24T18:45:12.841Z,101736.56
2018-09-24T18:47:45.809Z,101746.90
2018-09-24T18:50:18.525Z,101742.20
2018-09-24T18:52:51.623Z,101745.41
2018-09-24T18:55:27.007Z,101748.59
2018-09-24T18:58:00.328Z,101748.70
2018-09-24T19:00:34.293Z,101750.48
2018-09-24T19:03:08.513Z,101758.54
2018-09-24T19:05:41.500Z,101761.86
2018-09-24T19:08:14.620Z,101764.81
2018-09-24T19:10:48.454Z,101764.72
2018-09-24T19:13:22.597Z,101780.53
2018-09-24T19:15:55.297Z,101775.95
2018-09-24T19:18:28.401Z,101779.33
2018-09-24T19:21:01.152Z,101779.91
2018-09-24T19:23:40.051Z,101793.02
2018-09-24T19:26:17.587Z,101795.56
2018-09-24T19:28:52.332Z,101786.95
2018-09-24T19:31:26.530Z,101796.09
2018-09-24T19:34:00.040Z,101800.27
2018-09-24T19:36:32.989Z,101804.09
2018-09-24T19:39:07.010Z,101805.58
2018-09-24T19:41:43.681Z,101806.18
2018-09-24T19:44:16.924Z,101803.64
2018-09-24T19:46:50.068Z,101798.87
2018-09-24T19:49:23.371Z,101796.03
2018-09-24T19:51:58.146Z,101797.52
2018-09-24T19:54:30.900Z,101798.17
2018-09-24T19:57:04.838Z,101800.66
2018-09-24T19:59:37.860Z,101803.42
2018-09-24T20:02:10.449Z,101803.97
2018-09-24T20:07:22.017Z,101814.66
2018-09-24T20:09:57.888Z,101814.75
2018-09-24T20:12:30.885Z,101815.05
2018-09-24T20:15:03.952Z,101818.59
2018-09-24T20:17:36.580Z,101823.45
2018-09-24T20:20:11.527Z,101823.91
2018-09-24T20:22:48.317Z,101827.35
2018-09-24T20:25:20.925Z,101833.01
2018-09-24T20:27:53.658Z,101840.33
2018-09-24T20:30:26.400Z,101828.27
2018-09-24T20:33:01.479Z,101832.20
2018-09-24T20:35:35.054Z,101829.87
2018-09-24T20:38:08.022Z,101832.38
2018-09-24T20:40:41.212Z,101834.38
2018-09-24T20:43:15.107Z,101838.64
2018-09-24T20:45:48.674Z,101838.09
2018-09-24T20:48:24.440Z,101842.30
2018-09-24T20:50:57.373Z,101840.30
2018-09-24T20:53:30.139Z,101847.16
2018-09-24T20:56:02.684Z,101848.30
2018-09-24T20:58:36.752Z,101847.18
2018-09-24T21:01:09.348Z,101857.59
2018-09-24T21:03:42.213Z,101858.73
2018-09-24T21:06:14.785Z,101868.23
2018-09-24T21:08:47.480Z,101864.45
2018-09-24T21:11:22.083Z,101873.90
2018-09-24T21:13:54.900Z,101874.80
2018-09-24T21:16:27.598Z,101875.62
2018-09-24T21:19:00.801Z,101874.55
2018-09-24T21:21:34.799Z,101875.61
2018-09-24T21:24:07.401Z,101874.88
2018-09-24T21:26:40.547Z,101883.86
2018-09-24T21:29:13.129Z,101886.70
2018-09-24T21:31:46.601Z,101885.17
2018-09-24T21:34:19.536Z,101893.43
2018-09-24T21:36:52.695Z,101903.07
2018-09-24T21:39:25.514Z,101903.47
2018-09-24T21:41:59.992Z,101910.02
2018-09-24T21:44:32.872Z,101902.73
2018-09-24T21:47:06.340Z,101906.45
2018-09-24T21:49:40.138Z,101912.95
2018-09-24T21:52:13.477Z,101908.05
2018-09-24T21:54:48.063Z,101918.54
2018-09-24T21:57:21.873Z,101915.23
2018-09-24T21:59:54.558Z,101914.55
2018-09-24T22:02:27.370Z,101917.02
2018-09-24T22:05:00.033Z,101916.28
2018-09-24T22:07:33.348Z,101927.95
2018-09-24T22:10:07.409Z,101915.31
2018-09-24T22:12:40.898Z,101926.08
2018-09-24T22:15:13.533Z,101930.20
2018-09-24T22:17:46.329Z,101924.20
2018-09-24T22:20:19.392Z,101935.86
2018-09-24T22:22:51.967Z,101932.55
2018-09-24T22:25:24.689Z,101926.02
2018-09-24T22:27:57.664Z,101934.56
2018-09-24T22:30:30.401Z,101935.98
2018-09-24T22:33:02.953Z,101936.61
2018-09-24T22:35:35.776Z,101938.48
2018-09-24T22:38:08.390Z,101941.66
2018-09-24T22:40:41.098Z,101936.41
2018-09-24T22:43:14.030Z,101938.27
2018-09-24T22:45:46.709Z,101930.88
2018-09-24T22:48:20.392Z,101937.70
2018-09-24T22:50:53.867Z,101947.63
2018-09-24T22:53:26.484Z,101947.41
2018-09-24T22:55:59.364Z,101943.08
2018-09-24T22:58:32.117Z,101945.91
2018-09-24T23:01:04.680Z,101952.77
2018-09-24T23:03:37.702Z,101953.00
2018-09-24T23:06:10.469Z,101957.17
2018-09-24T23:08:43.176Z,101950.80
2018-09-24T23:11:16.033Z,101948.77
2018-09-24T23:13:48.757Z,101952.96
2018-09-24T23:16:21.431Z,101950.03
2018-09-24T23:18:57.851Z,101950.12
2018-09-24T23:21:31.474Z,101946.95
2018-09-24T23:24:04.167Z,101950.31
2018-09-24T23:26:37.229Z,101948.85
2018-09-24T23:29:10.009Z,101956.72
2018-09-24T23:31:42.672Z,101949.56
2018-09-24T23:34:15.822Z,101954.77
2018-09-24T23:36:48.414Z,101949.95
2018-09-24T23:39:21.165Z,101946.55
2018-09-24T23:41:54.113Z,101951.19
2018-09-24T23:44:26.749Z,101948.80
2018-09-24T23:46:59.507Z,101950.74
2018-09-24T23:49:32.532Z,101951.44
2018-09-24T23:52:06.328Z,101948.16
2018-09-24T23:54:38.864Z,101948.41
2018-09-24T23:57:12.755Z,101951.34
2018-09-24T23:59:45.497Z,101959.95
